sensor_id;sensor_type;location;lat;lon;timestamp;P1;durP1;ratioP1;P2;durP2;ratioP2
48987;SDS011;34799;51.440;-2.534;2023-02-15T00:02:00;30.83;;;15.85;;
48987;SDS011;34799;51.440;-2.534;2023-02-15T00:04:28;33.15;;;15.77;;
48987;SDS011;34799;51.440;-2.534;2023-02-15T00:07:16;33.90;;;15.85;;
48987;SDS011;34799;51.440;-2.534;2023-02-15T00:09:45;35.25;;;15.73;;
48987;SDS011;34799;51.440;-2.534;2023-02-15T00:12:13;35.10;;;16.52;;
48987;SDS011;34799;51.440;-2.534;2023-02-15T00:14:41;34.17;;;16.10;;
48987;SDS011;34799;51.440;-2.534;2023-02-15T00:17:08;32.03;;;15.27;;
48987;SDS011;34799;51.440;-2.534;2023-02-15T00:19:36;33.90;;;16.17;;
48987;SDS011;34799;51.440;-2.534;2023-02-15T00:22:03;33.10;;;17.20;;
48987;SDS011;34799;51.440;-2.534;2023-02-15T00:24:30;34.13;;;15.85;;
48987;SDS011;34799;51.440;-2.534;2023-02-15T00:26:57;32.38;;;15.90;;
48987;SDS011;34799;51.440;-2.534;2023-02-15T00:29:24;35.05;;;16.65;;
48987;SDS011;34799;51.440;-2.534;2023-02-15T00:31:51;31.70;;;15.82;;
48987;SDS011;34799;51.440;-2.534;2023-02-15T00:34:23;33.95;;;15.85;;
48987;SDS011;34799;51.440;-2.534;2023-02-15T00:36:51;34.45;;;16.83;;
48987;SDS011;34799;51.440;-2.534;2023-02-15T00:39:21;32.67;;;16.08;;
48987;SDS011;34799;51.440;-2.534;2023-02-15T00:41:50;35.05;;;16.13;;
48987;SDS011;34799;51.440;-2.534;2023-02-15T00:44:17;34.55;;;16.45;;
48987;SDS011;34799;51.440;-2.534;2023-02-15T00:46:44;32.47;;;16.35;;
48987;SDS011;34799;51.440;-2.534;2023-02-15T00:49:11;36.17;;;16.85;;
48987;SDS011;34799;51.440;-2.534;2023-02-15T00:51:39;33.40;;;16.42;;
48987;SDS011;34799;51.440;-2.534;2023-02-15T00:54:07;33.65;;;16.40;;
48987;SDS011;34799;51.440;-2.534;2023-02-15T00:56:34;37.00;;;16.70;;
48987;SDS011;34799;51.440;-2.534;2023-02-15T00:59:02;32.53;;;16.02;;
48987;SDS011;34799;51.440;-2.534;2023-02-15T01:01:29;35.05;;;15.55;;
48987;SDS011;34799;51.440;-2.534;2023-02-15T01:03:58;33.75;;;16.50;;
48987;SDS011;34799;51.440;-2.534;2023-02-15T01:06:28;34.15;;;18.00;;
48987;SDS011;34799;51.440;-2.534;2023-02-15T01:08:55;36.05;;;17.27;;
48987;SDS011;34799;51.440;-2.534;2023-02-15T01:11:23;36.05;;;17.48;;
48987;SDS011;34799;51.440;-2.534;2023-02-15T01:13:52;37.30;;;17.67;;
48987;SDS011;34799;51.440;-2.534;2023-02-15T01:16:22;34.17;;;17.30;;
48987;SDS011;34799;51.440;-2.534;2023-02-15T01:18:52;36.13;;;18.00;;
48987;SDS011;34799;51.440;-2.534;2023-02-15T01:21:21;40.33;;;18.02;;
48987;SDS011;34799;51.440;-2.534;2023-02-15T01:23:53;44.13;;;20.35;;
48987;SDS011;34799;51.440;-2.534;2023-02-15T01:26:20;37.35;;;19.00;;
48987;SDS011;34799;51.440;-2.534;2023-02-15T01:28:47;42.63;;;19.52;;
48987;SDS011;34799;51.440;-2.534;2023-02-15T01:31:16;37.67;;;18.80;;
48987;SDS011;34799;51.440;-2.534;2023-02-15T01:33:46;36.33;;;18.05;;
48987;SDS011;34799;51.440;-2.534;2023-02-15T01:36:13;37.40;;;18.70;;
48987;SDS011;34799;51.440;-2.534;2023-02-15T01:38:41;41.35;;;18.65;;
48987;SDS011;34799;51.440;-2.534;2023-02-15T01:41:08;36.17;;;18.77;;
48987;SDS011;34799;51.440;-2.534;2023-02-15T01:43:56;40.25;;;18.75;;
48987;SDS011;34799;51.440;-2.534;2023-02-15T01:46:27;40.65;;;18.40;;
48987;SDS011;34799;51.440;-2.534;2023-02-15T01:49:02;39.00;;;18.52;;
48987;SDS011;34799;51.440;-2.534;2023-02-15T01:51:34;40.78;;;19.45;;
48987;SDS011;34799;51.440;-2.534;2023-02-15T01:54:37;42.58;;;20.02;;
48987;SDS011;34799;51.440;-2.534;2023-02-15T01:57:01;39.40;;;19.63;;
48987;SDS011;34799;51.440;-2.534;2023-02-15T01:59:36;41.17;;;20.20;;
48987;SDS011;34799;51.440;-2.534;2023-02-15T02:02:06;38.97;;;19.80;;
48987;SDS011;34799;51.440;-2.534;2023-02-15T02:04:45;41.95;;;19.40;;
48987;SDS011;34799;51.440;-2.534;2023-02-15T02:07:18;40.47;;;19.13;;
48987;SDS011;34799;51.440;-2.534;2023-02-15T02:09:47;43.17;;;21.67;;
48987;SDS011;34799;51.440;-2.534;2023-02-15T02:12:16;45.30;;;21.75;;
48987;SDS011;34799;51.440;-2.534;2023-02-15T02:14:44;42.78;;;21.30;;
48987;SDS011;34799;51.440;-2.534;2023-02-15T02:17:16;45.80;;;21.67;;
48987;SDS011;34799;51.440;-2.534;2023-02-15T02:20:17;42.22;;;20.90;;
48987;SDS011;34799;51.440;-2.534;2023-02-15T02:34:15;45.80;;;21.55;;
48987;SDS011;34799;51.440;-2.534;2023-02-15T02:42:40;45.08;;;20.35;;
48987;SDS011;34799;51.440;-2.534;2023-02-15T02:45:15;46.35;;;21.73;;
48987;SDS011;34799;51.440;-2.534;2023-02-15T02:47:55;48.17;;;21.85;;
48987;SDS011;34799;51.440;-2.534;2023-02-15T02:50:38;50.08;;;23.13;;
48987;SDS011;34799;51.440;-2.534;2023-02-15T02:53:06;48.65;;;21.63;;
48987;SDS011;34799;51.440;-2.534;2023-02-15T03:00:31;46.67;;;22.58;;
48987;SDS011;34799;51.440;-2.534;2023-02-15T03:03:04;46.42;;;21.70;;
48987;SDS011;34799;51.440;-2.534;2023-02-15T03:05:38;44.58;;;21.80;;
48987;SDS011;34799;51.440;-2.534;2023-02-15T03:08:08;42.33;;;20.60;;
48987;SDS011;34799;51.440;-2.534;2023-02-15T03:10:36;51.20;;;22.73;;
48987;SDS011;34799;51.440;-2.534;2023-02-15T03:13:07;51.03;;;23.40;;
48987;SDS011;34799;51.440;-2.534;2023-02-15T03:15:36;46.60;;;22.33;;
48987;SDS011;34799;51.440;-2.534;2023-02-15T03:18:28;49.75;;;22.80;;
48987;SDS011;34799;51.440;-2.534;2023-02-15T03:21:01;48.45;;;22.60;;
48987;SDS011;34799;51.440;-2.534;2023-02-15T03:23:30;50.35;;;23.00;;
48987;SDS011;34799;51.440;-2.534;2023-02-15T03:26:00;50.92;;;22.45;;
48987;SDS011;34799;51.440;-2.534;2023-02-15T03:28:35;48.35;;;22.23;;
48987;SDS011;34799;51.440;-2.534;2023-02-15T03:31:07;47.10;;;22.25;;
48987;SDS011;34799;51.440;-2.534;2023-02-15T03:33:38;47.88;;;22.73;;
48987;SDS011;34799;51.440;-2.534;2023-02-15T03:36:22;50.38;;;22.70;;
48987;SDS011;34799;51.440;-2.534;2023-02-15T03:41:42;46.17;;;22.67;;
48987;SDS011;34799;51.440;-2.534;2023-02-15T03:44:18;61.72;;;24.63;;
48987;SDS011;34799;51.440;-2.534;2023-02-15T03:49:57;45.95;;;22.00;;
48987;SDS011;34799;51.440;-2.534;2023-02-15T03:52:57;49.65;;;23.73;;
48987;SDS011;34799;51.440;-2.534;2023-02-15T03:55:27;52.92;;;24.60;;
48987;SDS011;34799;51.440;-2.534;2023-02-15T03:57:55;50.42;;;23.65;;
48987;SDS011;34799;51.440;-2.534;2023-02-15T04:00:45;54.13;;;24.00;;
48987;SDS011;34799;51.440;-2.534;2023-02-15T04:03:39;54.47;;;25.40;;
48987;SDS011;34799;51.440;-2.534;2023-02-15T04:06:09;54.50;;;24.42;;
48987;SDS011;34799;51.440;-2.534;2023-02-15T04:08:36;52.50;;;26.15;;
48987;SDS011;34799;51.440;-2.534;2023-02-15T04:11:21;53.38;;;24.55;;
48987;SDS011;34799;51.440;-2.534;2023-02-15T04:13:48;58.17;;;24.77;;
48987;SDS011;34799;51.440;-2.534;2023-02-15T04:16:23;51.10;;;23.67;;
48987;SDS011;34799;51.440;-2.534;2023-02-15T04:18:51;50.55;;;23.45;;
48987;SDS011;34799;51.440;-2.534;2023-02-15T04:21:37;56.17;;;25.23;;
48987;SDS011;34799;51.440;-2.534;2023-02-15T04:24:24;58.07;;;26.07;;
48987;SDS011;34799;51.440;-2.534;2023-02-15T04:27:09;52.60;;;23.70;;
48987;SDS011;34799;51.440;-2.534;2023-02-15T04:29:36;52.97;;;25.38;;
48987;SDS011;34799;51.440;-2.534;2023-02-15T04:32:03;54.38;;;24.63;;
48987;SDS011;34799;51.440;-2.534;2023-02-15T04:34:30;51.70;;;23.55;;
48987;SDS011;34799;51.440;-2.534;2023-02-15T04:36:58;47.45;;;24.23;;
48987;SDS011;34799;51.440;-2.534;2023-02-15T04:39:25;55.70;;;25.27;;
48987;SDS011;34799;51.440;-2.534;2023-02-15T04:41:52;59.85;;;26.63;;
48987;SDS011;34799;51.440;-2.534;2023-02-15T04:44:19;53.72;;;25.52;;
48987;SDS011;34799;51.440;-2.534;2023-02-15T04:46:46;53.40;;;24.77;;
48987;SDS011;34799;51.440;-2.534;2023-02-15T04:49:13;56.10;;;25.35;;
48987;SDS011;34799;51.440;-2.534;2023-02-15T04:51:41;54.50;;;25.50;;
48987;SDS011;34799;51.440;-2.534;2023-02-15T04:54:08;53.65;;;25.52;;
48987;SDS011;34799;51.440;-2.534;2023-02-15T04:56:36;53.17;;;24.75;;
48987;SDS011;34799;51.440;-2.534;2023-02-15T04:59:04;54.58;;;25.17;;
48987;SDS011;34799;51.440;-2.534;2023-02-15T05:01:31;57.10;;;26.48;;
48987;SDS011;34799;51.440;-2.534;2023-02-15T05:03:58;50.78;;;25.25;;
48987;SDS011;34799;51.440;-2.534;2023-02-15T05:06:25;55.63;;;25.60;;
48987;SDS011;34799;51.440;-2.534;2023-02-15T05:08:53;58.83;;;24.95;;
48987;SDS011;34799;51.440;-2.534;2023-02-15T05:11:20;53.58;;;24.65;;
48987;SDS011;34799;51.440;-2.534;2023-02-15T05:13:47;55.05;;;24.90;;
48987;SDS011;34799;51.440;-2.534;2023-02-15T05:16:15;49.72;;;23.52;;
48987;SDS011;34799;51.440;-2.534;2023-02-15T05:18:42;53.30;;;25.77;;
48987;SDS011;34799;51.440;-2.534;2023-02-15T05:21:09;52.65;;;24.30;;
48987;SDS011;34799;51.440;-2.534;2023-02-15T05:23:37;52.13;;;24.65;;
48987;SDS011;34799;51.440;-2.534;2023-02-15T05:26:05;59.60;;;26.25;;
48987;SDS011;34799;51.440;-2.534;2023-02-15T05:29:07;54.03;;;25.55;;
48987;SDS011;34799;51.440;-2.534;2023-02-15T05:31:35;59.90;;;26.55;;
48987;SDS011;34799;51.440;-2.534;2023-02-15T05:34:03;57.45;;;26.52;;
48987;SDS011;34799;51.440;-2.534;2023-02-15T05:36:30;57.95;;;27.40;;
48987;SDS011;34799;51.440;-2.534;2023-02-15T05:38:58;55.97;;;26.00;;
48987;SDS011;34799;51.440;-2.534;2023-02-15T05:41:25;53.08;;;25.77;;
48987;SDS011;34799;51.440;-2.534;2023-02-15T05:43:54;53.75;;;26.10;;
48987;SDS011;34799;51.440;-2.534;2023-02-15T05:46:22;58.25;;;26.35;;
48987;SDS011;34799;51.440;-2.534;2023-02-15T05:48:51;58.17;;;26.30;;
48987;SDS011;34799;51.440;-2.534;2023-02-15T05:51:18;52.60;;;24.25;;
48987;SDS011;34799;51.440;-2.534;2023-02-15T05:53:45;51.08;;;23.67;;
48987;SDS011;34799;51.440;-2.534;2023-02-15T05:56:12;58.58;;;26.60;;
48987;SDS011;34799;51.440;-2.534;2023-02-15T05:58:40;57.30;;;26.35;;
48987;SDS011;34799;51.440;-2.534;2023-02-15T06:01:10;50.95;;;24.30;;
48987;SDS011;34799;51.440;-2.534;2023-02-15T06:03:41;51.65;;;24.33;;
48987;SDS011;34799;51.440;-2.534;2023-02-15T06:06:10;53.90;;;25.73;;
48987;SDS011;34799;51.440;-2.534;2023-02-15T06:08:37;55.55;;;23.60;;
48987;SDS011;34799;51.440;-2.534;2023-02-15T06:11:05;52.40;;;24.92;;
48987;SDS011;34799;51.440;-2.534;2023-02-15T06:13:33;50.67;;;23.77;;
48987;SDS011;34799;51.440;-2.534;2023-02-15T06:16:03;57.78;;;25.15;;
48987;SDS011;34799;51.440;-2.534;2023-02-15T06:18:31;52.40;;;23.30;;
48987;SDS011;34799;51.440;-2.534;2023-02-15T06:20:58;55.42;;;24.83;;
48987;SDS011;34799;51.440;-2.534;2023-02-15T06:23:25;52.38;;;24.05;;
48987;SDS011;34799;51.440;-2.534;2023-02-15T06:25:52;49.95;;;23.38;;
48987;SDS011;34799;51.440;-2.534;2023-02-15T06:28:21;56.38;;;25.33;;
48987;SDS011;34799;51.440;-2.534;2023-02-15T06:30:48;55.13;;;25.92;;
48987;SDS011;34799;51.440;-2.534;2023-02-15T06:33:15;58.75;;;25.25;;
48987;SDS011;34799;51.440;-2.534;2023-02-15T06:35:42;52.58;;;25.02;;
48987;SDS011;34799;51.440;-2.534;2023-02-15T06:38:09;58.42;;;26.70;;
48987;SDS011;34799;51.440;-2.534;2023-02-15T06:40:36;54.78;;;25.00;;
48987;SDS011;34799;51.440;-2.534;2023-02-15T06:43:03;52.15;;;24.35;;
48987;SDS011;34799;51.440;-2.534;2023-02-15T06:45:31;57.22;;;25.10;;
48987;SDS011;34799;51.440;-2.534;2023-02-15T06:47:58;56.05;;;24.92;;
48987;SDS011;34799;51.440;-2.534;2023-02-15T06:50:25;52.47;;;24.15;;
48987;SDS011;34799;51.440;-2.534;2023-02-15T06:52:56;53.40;;;25.05;;
48987;SDS011;34799;51.440;-2.534;2023-02-15T06:55:24;53.30;;;24.20;;
48987;SDS011;34799;51.440;-2.534;2023-02-15T06:57:51;53.25;;;24.55;;
48987;SDS011;34799;51.440;-2.534;2023-02-15T07:00:18;54.60;;;24.45;;
48987;SDS011;34799;51.440;-2.534;2023-02-15T07:02:47;55.95;;;26.83;;
48987;SDS011;34799;51.440;-2.534;2023-02-15T07:05:14;54.30;;;25.02;;
48987;SDS011;34799;51.440;-2.534;2023-02-15T07:07:42;55.90;;;25.40;;
48987;SDS011;34799;51.440;-2.534;2023-02-15T07:10:09;53.45;;;25.85;;
48987;SDS011;34799;51.440;-2.534;2023-02-15T07:12:36;56.83;;;24.10;;
48987;SDS011;34799;51.440;-2.534;2023-02-15T07:15:11;50.22;;;24.70;;
48987;SDS011;34799;51.440;-2.534;2023-02-15T07:17:41;52.92;;;24.33;;
48987;SDS011;34799;51.440;-2.534;2023-02-15T07:20:11;52.78;;;25.88;;
48987;SDS011;34799;51.440;-2.534;2023-02-15T07:22:48;53.58;;;23.25;;
48987;SDS011;34799;51.440;-2.534;2023-02-15T07:25:16;51.83;;;23.67;;
48987;SDS011;34799;51.440;-2.534;2023-02-15T07:27:45;53.55;;;24.70;;
48987;SDS011;34799;51.440;-2.534;2023-02-15T07:30:13;49.70;;;23.55;;
48987;SDS011;34799;51.440;-2.534;2023-02-15T07:32:42;51.88;;;23.58;;
48987;SDS011;34799;51.440;-2.534;2023-02-15T07:35:30;52.20;;;24.55;;
48987;SDS011;34799;51.440;-2.534;2023-02-15T07:37:58;52.10;;;23.50;;
48987;SDS011;34799;51.440;-2.534;2023-02-15T07:40:25;50.20;;;22.38;;
48987;SDS011;34799;51.440;-2.534;2023-02-15T07:42:52;47.60;;;22.80;;
48987;SDS011;34799;51.440;-2.534;2023-02-15T07:45:21;50.47;;;23.23;;
48987;SDS011;34799;51.440;-2.534;2023-02-15T07:47:49;52.13;;;22.38;;
48987;SDS011;34799;51.440;-2.534;2023-02-15T07:50:16;49.90;;;21.90;;
48987;SDS011;34799;51.440;-2.534;2023-02-15T07:52:43;46.15;;;21.35;;
48987;SDS011;34799;51.440;-2.534;2023-02-15T07:55:10;42.08;;;19.75;;
48987;SDS011;34799;51.440;-2.534;2023-02-15T07:57:42;41.35;;;19.95;;
48987;SDS011;34799;51.440;-2.534;2023-02-15T08:00:11;40.95;;;19.40;;
48987;SDS011;34799;51.440;-2.534;2023-02-15T08:02:42;41.50;;;20.85;;
48987;SDS011;34799;51.440;-2.534;2023-02-15T08:05:14;39.80;;;19.23;;
48987;SDS011;34799;51.440;-2.534;2023-02-15T08:07:43;37.65;;;17.52;;
48987;SDS011;34799;51.440;-2.534;2023-02-15T08:10:10;42.55;;;18.98;;
48987;SDS011;34799;51.440;-2.534;2023-02-15T08:12:57;37.78;;;18.45;;
48987;SDS011;34799;51.440;-2.534;2023-02-15T08:15:24;41.33;;;17.95;;
48987;SDS011;34799;51.440;-2.534;2023-02-15T08:17:51;39.65;;;17.98;;
48987;SDS011;34799;51.440;-2.534;2023-02-15T08:20:19;36.88;;;18.23;;
48987;SDS011;34799;51.440;-2.534;2023-02-15T08:22:46;37.78;;;18.63;;
48987;SDS011;34799;51.440;-2.534;2023-02-15T08:25:13;37.33;;;17.60;;
48987;SDS011;34799;51.440;-2.534;2023-02-15T08:27:40;41.88;;;18.02;;
48987;SDS011;34799;51.440;-2.534;2023-02-15T08:30:07;38.65;;;17.83;;
48987;SDS011;34799;51.440;-2.534;2023-02-15T08:32:34;39.47;;;18.35;;
48987;SDS011;34799;51.440;-2.534;2023-02-15T08:35:01;36.60;;;18.42;;
48987;SDS011;34799;51.440;-2.534;2023-02-15T08:37:29;35.75;;;17.40;;
48987;SDS011;34799;51.440;-2.534;2023-02-15T08:39:56;35.38;;;17.60;;
48987;SDS011;34799;51.440;-2.534;2023-02-15T08:42:23;43.38;;;18.27;;
48987;SDS011;34799;51.440;-2.534;2023-02-15T08:44:50;36.50;;;17.60;;
48987;SDS011;34799;51.440;-2.534;2023-02-15T08:47:18;35.65;;;17.15;;
48987;SDS011;34799;51.440;-2.534;2023-02-15T08:49:44;33.65;;;17.25;;
48987;SDS011;34799;51.440;-2.534;2023-02-15T08:52:11;36.83;;;17.15;;
48987;SDS011;34799;51.440;-2.534;2023-02-15T08:54:39;39.47;;;18.20;;
48987;SDS011;34799;51.440;-2.534;2023-02-15T08:57:06;36.70;;;18.25;;
48987;SDS011;34799;51.440;-2.534;2023-02-15T08:59:36;37.97;;;17.55;;
48987;SDS011;34799;51.440;-2.534;2023-02-15T09:02:03;34.58;;;17.05;;
48987;SDS011;34799;51.440;-2.534;2023-02-15T09:04:32;36.42;;;16.35;;
48987;SDS011;34799;51.440;-2.534;2023-02-15T09:06:59;33.97;;;17.70;;
48987;SDS011;34799;51.440;-2.534;2023-02-15T09:09:26;37.75;;;17.27;;
48987;SDS011;34799;51.440;-2.534;2023-02-15T09:11:53;34.13;;;16.25;;
48987;SDS011;34799;51.440;-2.534;2023-02-15T09:14:27;33.95;;;16.48;;
48987;SDS011;34799;51.440;-2.534;2023-02-15T09:16:57;32.20;;;16.63;;
48987;SDS011;34799;51.440;-2.534;2023-02-15T09:19:24;33.95;;;16.30;;
48987;SDS011;34799;51.440;-2.534;2023-02-15T09:21:52;34.08;;;14.68;;
48987;SDS011;34799;51.440;-2.534;2023-02-15T09:24:19;29.55;;;14.48;;
48987;SDS011;34799;51.440;-2.534;2023-02-15T09:26:47;29.13;;;13.20;;
48987;SDS011;34799;51.440;-2.534;2023-02-15T09:29:15;24.08;;;12.38;;
48987;SDS011;34799;51.440;-2.534;2023-02-15T09:31:45;31.25;;;12.90;;
48987;SDS011;34799;51.440;-2.534;2023-02-15T09:34:15;23.20;;;11.07;;
48987;SDS011;34799;51.440;-2.534;2023-02-15T09:36:45;26.90;;;12.30;;
48987;SDS011;34799;51.440;-2.534;2023-02-15T09:39:14;24.52;;;12.27;;
48987;SDS011;34799;51.440;-2.534;2023-02-15T09:47:55;28.10;;;11.85;;
48987;SDS011;34799;51.440;-2.534;2023-02-15T10:01:48;23.65;;;10.07;;
48987;SDS011;34799;51.440;-2.534;2023-02-15T10:05:30;20.92;;;9.48;;
48987;SDS011;34799;51.440;-2.534;2023-02-15T10:07:48;19.05;;;9.30;;
48987;SDS011;34799;51.440;-2.534;2023-02-15T10:10:24;22.15;;;8.68;;
48987;SDS011;34799;51.440;-2.534;2023-02-15T10:18:48;20.45;;;9.32;;
48987;SDS011;34799;51.440;-2.534;2023-02-15T10:21:39;24.02;;;8.10;;
48987;SDS011;34799;51.440;-2.534;2023-02-15T10:24:23;16.57;;;7.63;;
48987;SDS011;34799;51.440;-2.534;2023-02-15T10:27:18;18.40;;;7.93;;
48987;SDS011;34799;51.440;-2.534;2023-02-15T10:38:30;19.60;;;7.10;;
48987;SDS011;34799;51.440;-2.534;2023-02-15T10:44:03;19.13;;;7.68;;
48987;SDS011;34799;51.440;-2.534;2023-02-15T10:49:36;18.38;;;6.82;;
48987;SDS011;34799;51.440;-2.534;2023-02-15T10:58:10;22.08;;;6.75;;
48987;SDS011;34799;51.440;-2.534;2023-02-15T11:00:52;20.58;;;8.07;;
48987;SDS011;34799;51.440;-2.534;2023-02-15T11:06:32;18.85;;;7.38;;
48987;SDS011;34799;51.440;-2.534;2023-02-15T11:09:09;21.55;;;7.18;;
48987;SDS011;34799;51.440;-2.534;2023-02-15T11:11:39;19.33;;;7.60;;
48987;SDS011;34799;51.440;-2.534;2023-02-15T11:14:15;24.27;;;7.72;;
48987;SDS011;34799;51.440;-2.534;2023-02-15T11:16:51;23.10;;;7.32;;
48987;SDS011;34799;51.440;-2.534;2023-02-15T11:19:28;20.40;;;7.03;;
48987;SDS011;34799;51.440;-2.534;2023-02-15T11:22:27;17.98;;;7.80;;
48987;SDS011;34799;51.440;-2.534;2023-02-15T11:24:56;20.77;;;8.10;;
48987;SDS011;34799;51.440;-2.534;2023-02-15T11:27:27;16.90;;;7.25;;
48987;SDS011;34799;51.440;-2.534;2023-02-15T11:32:29;15.63;;;7.10;;
48987;SDS011;34799;51.440;-2.534;2023-02-15T11:37:53;25.23;;;9.38;;
48987;SDS011;34799;51.440;-2.534;2023-02-15T11:43:46;17.67;;;7.65;;
48987;SDS011;34799;51.440;-2.534;2023-02-15T11:46:35;23.20;;;7.53;;
48987;SDS011;34799;51.440;-2.534;2023-02-15T11:52:06;20.67;;;7.38;;
48987;SDS011;34799;51.440;-2.534;2023-02-15T11:54:41;16.05;;;7.18;;
48987;SDS011;34799;51.440;-2.534;2023-02-15T11:57:31;21.70;;;8.05;;
48987;SDS011;34799;51.440;-2.534;2023-02-15T12:00:14;20.90;;;7.78;;
48987;SDS011;34799;51.440;-2.534;2023-02-15T12:02:50;13.55;;;6.18;;
48987;SDS011;34799;51.440;-2.534;2023-02-15T12:05:21;16.55;;;6.90;;
48987;SDS011;34799;51.440;-2.534;2023-02-15T12:08:03;18.20;;;7.18;;
48987;SDS011;34799;51.440;-2.534;2023-02-15T12:11:03;17.52;;;7.13;;
48987;SDS011;34799;51.440;-2.534;2023-02-15T12:13:34;16.35;;;7.28;;
48987;SDS011;34799;51.440;-2.534;2023-02-15T12:16:05;18.17;;;6.60;;
48987;SDS011;34799;51.440;-2.534;2023-02-15T12:21:14;19.55;;;6.82;;
48987;SDS011;34799;51.440;-2.534;2023-02-15T12:23:55;17.75;;;7.30;;
48987;SDS011;34799;51.440;-2.534;2023-02-15T12:26:43;16.23;;;6.55;;
48987;SDS011;34799;51.440;-2.534;2023-02-15T12:29:15;16.38;;;6.88;;
48987;SDS011;34799;51.440;-2.534;2023-02-15T12:31:50;17.27;;;6.65;;
48987;SDS011;34799;51.440;-2.534;2023-02-15T12:34:25;13.85;;;5.97;;
48987;SDS011;34799;51.440;-2.534;2023-02-15T12:37:00;13.85;;;6.15;;
48987;SDS011;34799;51.440;-2.534;2023-02-15T12:39:30;15.63;;;6.60;;
48987;SDS011;34799;51.440;-2.534;2023-02-15T12:44:29;20.92;;;5.93;;
48987;SDS011;34799;51.440;-2.534;2023-02-15T12:49:26;18.65;;;6.82;;
48987;SDS011;34799;51.440;-2.534;2023-02-15T12:52:04;15.45;;;6.35;;
48987;SDS011;34799;51.440;-2.534;2023-02-15T12:54:51;22.55;;;7.53;;
48987;SDS011;34799;51.440;-2.534;2023-02-15T13:05:05;20.38;;;5.22;;
48987;SDS011;34799;51.440;-2.534;2023-02-15T13:07:48;19.50;;;5.88;;
48987;SDS011;34799;51.440;-2.534;2023-02-15T13:10:20;13.00;;;5.20;;
48987;SDS011;34799;51.440;-2.534;2023-02-15T13:12:51;14.20;;;5.00;;
48987;SDS011;34799;51.440;-2.534;2023-02-15T13:15:28;19.27;;;5.30;;
48987;SDS011;34799;51.440;-2.534;2023-02-15T13:18:02;18.95;;;5.68;;
48987;SDS011;34799;51.440;-2.534;2023-02-15T13:20:34;14.75;;;5.03;;
48987;SDS011;34799;51.440;-2.534;2023-02-15T13:23:08;15.20;;;5.47;;
48987;SDS011;34799;51.440;-2.534;2023-02-15T13:25:54;13.13;;;4.75;;
48987;SDS011;34799;51.440;-2.534;2023-02-15T13:28:32;18.02;;;5.15;;
48987;SDS011;34799;51.440;-2.534;2023-02-15T13:31:08;15.98;;;5.40;;
48987;SDS011;34799;51.440;-2.534;2023-02-15T13:33:49;16.90;;;5.45;;
48987;SDS011;34799;51.440;-2.534;2023-02-15T13:47:31;17.08;;;5.82;;
48987;SDS011;34799;51.440;-2.534;2023-02-15T13:50:26;13.40;;;6.13;;
48987;SDS011;34799;51.440;-2.534;2023-02-15T13:55:54;18.40;;;6.53;;
48987;SDS011;34799;51.440;-2.534;2023-02-15T14:01:17;27.70;;;6.53;;
48987;SDS011;34799;51.440;-2.534;2023-02-15T14:06:46;14.68;;;6.20;;
48987;SDS011;34799;51.440;-2.534;2023-02-15T14:29:51;17.67;;;5.95;;
48987;SDS011;34799;51.440;-2.534;2023-02-15T14:32:34;19.15;;;6.45;;
48987;SDS011;34799;51.440;-2.534;2023-02-15T14:47:00;20.42;;;7.18;;
48987;SDS011;34799;51.440;-2.534;2023-02-15T14:49:39;18.30;;;7.47;;
48987;SDS011;34799;51.440;-2.534;2023-02-15T14:52:07;21.00;;;8.00;;
48987;SDS011;34799;51.440;-2.534;2023-02-15T15:05:21;4.90;;;1.10;;
48987;SDS011;34799;51.440;-2.534;2023-02-15T15:08:03;1.52;;;0.40;;
48987;SDS011;34799;51.440;-2.534;2023-02-15T15:15:56;2.13;;;0.32;;
48987;SDS011;34799;51.440;-2.534;2023-02-15T15:18:47;1.73;;;0.40;;
48987;SDS011;34799;51.440;-2.534;2023-02-15T15:35:26;0.95;;;0.30;;
48987;SDS011;34799;51.440;-2.534;2023-02-15T15:47:12;1.55;;;0.30;;
48987;SDS011;34799;51.440;-2.534;2023-02-15T15:50:10;0.73;;;0.30;;
48987;SDS011;34799;51.440;-2.534;2023-02-15T15:52:41;0.32;;;0.10;;
48987;SDS011;34799;51.440;-2.534;2023-02-15T15:55:19;1.80;;;0.30;;
48987;SDS011;34799;51.440;-2.534;2023-02-15T15:57:55;1.58;;;0.20;;
48987;SDS011;34799;51.440;-2.534;2023-02-15T16:00:35;0.93;;;0.30;;
48987;SDS011;34799;51.440;-2.534;2023-02-15T16:03:25;3.55;;;0.43;;
48987;SDS011;34799;51.440;-2.534;2023-02-15T16:08:32;4.28;;;0.85;;
48987;SDS011;34799;51.440;-2.534;2023-02-15T16:11:24;4.95;;;1.23;;
48987;SDS011;34799;51.440;-2.534;2023-02-15T16:13:56;2.88;;;0.80;;
48987;SDS011;34799;51.440;-2.534;2023-02-15T16:16:27;3.90;;;0.80;;
48987;SDS011;34799;51.440;-2.534;2023-02-15T16:18:57;5.55;;;1.05;;
48987;SDS011;34799;51.440;-2.534;2023-02-15T16:21:30;3.85;;;1.10;;
48987;SDS011;34799;51.440;-2.534;2023-02-15T16:24:46;4.70;;;1.38;;
48987;SDS011;34799;51.440;-2.534;2023-02-15T16:29:52;2.63;;;1.23;;
48987;SDS011;34799;51.440;-2.534;2023-02-15T16:32:23;7.18;;;1.65;;
48987;SDS011;34799;51.440;-2.534;2023-02-15T16:37:31;2.85;;;1.20;;
48987;SDS011;34799;51.440;-2.534;2023-02-15T16:40:00;1.60;;;1.20;;
48987;SDS011;34799;51.440;-2.534;2023-02-15T16:42:31;2.90;;;1.50;;
48987;SDS011;34799;51.440;-2.534;2023-02-15T16:47:33;4.28;;;1.00;;
48987;SDS011;34799;51.440;-2.534;2023-02-15T16:50:16;2.15;;;1.08;;
48987;SDS011;34799;51.440;-2.534;2023-02-15T16:52:46;3.38;;;1.10;;
48987;SDS011;34799;51.440;-2.534;2023-02-15T16:55:24;7.45;;;1.95;;
48987;SDS011;34799;51.440;-2.534;2023-02-15T16:58:04;3.78;;;1.83;;
48987;SDS011;34799;51.440;-2.534;2023-02-15T17:00:34;8.15;;;3.30;;
48987;SDS011;34799;51.440;-2.534;2023-02-15T17:05:41;4.70;;;1.60;;
48987;SDS011;34799;51.440;-2.534;2023-02-15T17:11:08;4.10;;;1.17;;
48987;SDS011;34799;51.440;-2.534;2023-02-15T17:13:38;4.40;;;1.30;;
48987;SDS011;34799;51.440;-2.534;2023-02-15T17:16:27;6.53;;;1.23;;
48987;SDS011;34799;51.440;-2.534;2023-02-15T17:18:57;2.70;;;1.15;;
48987;SDS011;34799;51.440;-2.534;2023-02-15T17:21:30;12.73;;;1.63;;
48987;SDS011;34799;51.440;-2.534;2023-02-15T17:24:01;7.32;;;1.05;;
48987;SDS011;34799;51.440;-2.534;2023-02-15T17:26:31;3.55;;;1.00;;
48987;SDS011;34799;51.440;-2.534;2023-02-15T17:29:02;3.70;;;1.20;;
48987;SDS011;34799;51.440;-2.534;2023-02-15T17:31:44;5.47;;;1.20;;
48987;SDS011;34799;51.440;-2.534;2023-02-15T17:40:13;6.53;;;1.80;;
48987;SDS011;34799;51.440;-2.534;2023-02-15T17:42:44;3.97;;;1.48;;
48987;SDS011;34799;51.440;-2.534;2023-02-15T17:45:11;7.85;;;2.08;;
48987;SDS011;34799;51.440;-2.534;2023-02-15T17:47:41;5.43;;;1.25;;
48987;SDS011;34799;51.440;-2.534;2023-02-15T17:50:11;4.18;;;1.58;;
48987;SDS011;34799;51.440;-2.534;2023-02-15T17:52:50;9.15;;;1.33;;
48987;SDS011;34799;51.440;-2.534;2023-02-15T17:55:20;4.35;;;1.02;;
48987;SDS011;34799;51.440;-2.534;2023-02-15T17:58:10;4.65;;;1.20;;
48987;SDS011;34799;51.440;-2.534;2023-02-15T18:00:41;5.60;;;1.15;;
48987;SDS011;34799;51.440;-2.534;2023-02-15T18:03:34;4.20;;;1.00;;
48987;SDS011;34799;51.440;-2.534;2023-02-15T18:06:28;2.85;;;0.90;;
48987;SDS011;34799;51.440;-2.534;2023-02-15T18:09:16;4.28;;;0.93;;
48987;SDS011;34799;51.440;-2.534;2023-02-15T18:12:25;6.05;;;1.02;;
48987;SDS011;34799;51.440;-2.534;2023-02-15T18:14:55;6.55;;;0.85;;
48987;SDS011;34799;51.440;-2.534;2023-02-15T18:17:27;8.27;;;1.25;;
48987;SDS011;34799;51.440;-2.534;2023-02-15T18:20:05;5.50;;;1.20;;
48987;SDS011;34799;51.440;-2.534;2023-02-15T18:22:40;3.45;;;0.95;;
48987;SDS011;34799;51.440;-2.534;2023-02-15T18:25:12;3.17;;;0.98;;